Preview of NWS' New Version of Forecast
This preview is not operational and should not be used for support decisions.

Terminal Aerodrome Forecast (TAF)

Issued by National Weather Service (NWS)

                            
000
FTUS46 KMTR 211730
TAFSTS
TAF
KSTS 211730Z 2118/2218 VRB03KT P6SM SKC
     FM211900 22009KT P6SM SKC
     FM220400 30005KT P6SM SKC
     FM220900 VRB03KT 5SM BR OVC007
     FM221200 00000KT 1/2SM FG OVC007
     FM221700 VRB03KT 5SM BR SCT008=